sensor_id;sensor_type;location;lat;lon;timestamp;temperature;humidity
16479;DHT22;8350;52.316;10.530;2023-08-24T00:01:02;17.10;99.90
16479;DHT22;8350;52.316;10.530;2023-08-24T00:03:30;17.00;99.90
16479;DHT22;8350;52.316;10.530;2023-08-24T00:05:56;16.90;99.90
16479;DHT22;8350;52.316;10.530;2023-08-24T00:08:23;16.90;99.90
16479;DHT22;8350;52.316;10.530;2023-08-24T00:10:50;16.90;99.90
16479;DHT22;8350;52.316;10.530;2023-08-24T00:13:17;16.90;99.90
16479;DHT22;8350;52.316;10.530;2023-08-24T00:15:45;16.90;99.90
16479;DHT22;8350;52.316;10.530;2023-08-24T00:18:13;16.80;99.90
16479;DHT22;8350;52.316;10.530;2023-08-24T00:20:40;16.80;99.90
16479;DHT22;8350;52.316;10.530;2023-08-24T00:23:07;16.80;99.90
16479;DHT22;8350;52.316;10.530;2023-08-24T00:25:35;16.80;99.90
16479;DHT22;8350;52.316;10.530;2023-08-24T00:28:03;16.70;99.90
16479;DHT22;8350;52.316;10.530;2023-08-24T00:30:30;16.80;99.90
16479;DHT22;8350;52.316;10.530;2023-08-24T00:32:57;16.70;99.90
16479;DHT22;8350;52.316;10.530;2023-08-24T00:35:26;16.70;99.90
16479;DHT22;8350;52.316;10.530;2023-08-24T00:37:53;16.80;99.90
16479;DHT22;8350;52.316;10.530;2023-08-24T00:40:23;16.80;99.90
16479;DHT22;8350;52.316;10.530;2023-08-24T00:42:50;16.80;99.90
16479;DHT22;8350;52.316;10.530;2023-08-24T00:45:18;16.80;99.90
16479;DHT22;8350;52.316;10.530;2023-08-24T00:47:46;16.70;99.90
16479;DHT22;8350;52.316;10.530;2023-08-24T00:50:16;16.70;99.90
16479;DHT22;8350;52.316;10.530;2023-08-24T00:52:44;16.60;99.90
16479;DHT22;8350;52.316;10.530;2023-08-24T00:55:20;16.60;99.90
16479;DHT22;8350;52.316;10.530;2023-08-24T00:57:48;16.60;99.90
16479;DHT22;8350;52.316;10.530;2023-08-24T01:00:16;16.60;99.90
16479;DHT22;8350;52.316;10.530;2023-08-24T01:02:43;16.60;99.90
16479;DHT22;8350;52.316;10.530;2023-08-24T01:05:10;16.50;99.90
16479;DHT22;8350;52.316;10.530;2023-08-24T01:07:39;16.60;99.90
16479;DHT22;8350;52.316;10.530;2023-08-24T01:10:09;16.40;99.90
16479;DHT22;8350;52.316;10.530;2023-08-24T01:12:56;16.20;99.90
16479;DHT22;8350;52.316;10.530;2023-08-24T01:15:32;16.10;99.90
16479;DHT22;8350;52.316;10.530;2023-08-24T01:18:04;16.00;99.90
16479;DHT22;8350;52.316;10.530;2023-08-24T01:20:34;15.90;99.90
16479;DHT22;8350;52.316;10.530;2023-08-24T01:23:09;15.90;99.90
16479;DHT22;8350;52.316;10.530;2023-08-24T01:25:47;15.90;99.90
16479;DHT22;8350;52.316;10.530;2023-08-24T01:28:19;15.90;99.90
16479;DHT22;8350;52.316;10.530;2023-08-24T01:30:49;15.90;99.90
16479;DHT22;8350;52.316;10.530;2023-08-24T01:33:16;16.00;99.90
16479;DHT22;8350;52.316;10.530;2023-08-24T01:35:43;16.00;99.90
16479;DHT22;8350;52.316;10.530;2023-08-24T01:38:10;16.00;99.90
16479;DHT22;8350;52.316;10.530;2023-08-24T01:40:45;16.00;99.90
16479;DHT22;8350;52.316;10.530;2023-08-24T01:43:15;15.90;99.90
16479;DHT22;8350;52.316;10.530;2023-08-24T01:45:45;16.00;99.90
16479;DHT22;8350;52.316;10.530;2023-08-24T01:48:13;16.10;99.90
16479;DHT22;8350;52.316;10.530;2023-08-24T01:50:42;16.10;99.90
16479;DHT22;8350;52.316;10.530;2023-08-24T01:53:17;16.20;99.90
16479;DHT22;8350;52.316;10.530;2023-08-24T01:55:45;16.20;99.90
16479;DHT22;8350;52.316;10.530;2023-08-24T01:58:12;16.10;99.90
16479;DHT22;8350;52.316;10.530;2023-08-24T02:00:39;16.10;99.90
16479;DHT22;8350;52.316;10.530;2023-08-24T02:03:07;16.10;99.90
16479;DHT22;8350;52.316;10.530;2023-08-24T02:05:34;16.10;99.90
16479;DHT22;8350;52.316;10.530;2023-08-24T02:08:01;16.10;99.90
16479;DHT22;8350;52.316;10.530;2023-08-24T02:10:28;16.00;99.90
16479;DHT22;8350;52.316;10.530;2023-08-24T02:12:54;16.00;99.90
16479;DHT22;8350;52.316;10.530;2023-08-24T02:15:27;16.10;99.90
16479;DHT22;8350;52.316;10.530;2023-08-24T02:17:55;16.00;99.90
16479;DHT22;8350;52.316;10.530;2023-08-24T02:20:23;15.90;99.90
16479;DHT22;8350;52.316;10.530;2023-08-24T02:22:50;15.90;99.90
16479;DHT22;8350;52.316;10.530;2023-08-24T02:25:17;15.80;99.90
16479;DHT22;8350;52.316;10.530;2023-08-24T02:27:44;15.80;99.90
16479;DHT22;8350;52.316;10.530;2023-08-24T02:30:12;15.80;99.90
16479;DHT22;8350;52.316;10.530;2023-08-24T02:32:40;15.80;99.90
16479;DHT22;8350;52.316;10.530;2023-08-24T02:35:08;15.80;99.90
16479;DHT22;8350;52.316;10.530;2023-08-24T02:37:37;15.80;99.90
16479;DHT22;8350;52.316;10.530;2023-08-24T02:40:05;15.70;99.90
16479;DHT22;8350;52.316;10.530;2023-08-24T02:42:35;15.60;99.90
16479;DHT22;8350;52.316;10.530;2023-08-24T02:45:02;15.60;99.90
16479;DHT22;8350;52.316;10.530;2023-08-24T02:47:29;15.50;99.90
16479;DHT22;8350;52.316;10.530;2023-08-24T02:49:56;15.50;99.90
16479;DHT22;8350;52.316;10.530;2023-08-24T02:52:23;15.50;99.90
16479;DHT22;8350;52.316;10.530;2023-08-24T02:54:52;15.40;99.90
16479;DHT22;8350;52.316;10.530;2023-08-24T02:57:18;15.50;99.90
16479;DHT22;8350;52.316;10.530;2023-08-24T02:59:45;15.40;99.90
16479;DHT22;8350;52.316;10.530;2023-08-24T03:02:12;15.40;99.90
16479;DHT22;8350;52.316;10.530;2023-08-24T03:04:39;15.30;99.90
16479;DHT22;8350;52.316;10.530;2023-08-24T03:07:06;15.20;99.90
16479;DHT22;8350;52.316;10.530;2023-08-24T03:09:36;15.20;99.90
16479;DHT22;8350;52.316;10.530;2023-08-24T03:12:05;15.20;99.90
16479;DHT22;8350;52.316;10.530;2023-08-24T03:14:31;15.20;99.90
16479;DHT22;8350;52.316;10.530;2023-08-24T03:16:58;15.30;99.90
16479;DHT22;8350;52.316;10.530;2023-08-24T03:19:25;15.20;99.90
16479;DHT22;8350;52.316;10.530;2023-08-24T03:21:52;15.20;99.90
16479;DHT22;8350;52.316;10.530;2023-08-24T03:24:19;15.20;99.90
16479;DHT22;8350;52.316;10.530;2023-08-24T03:26:46;15.30;99.90
16479;DHT22;8350;52.316;10.530;2023-08-24T03:29:14;15.30;99.90
16479;DHT22;8350;52.316;10.530;2023-08-24T03:31:41;15.20;99.90
16479;DHT22;8350;52.316;10.530;2023-08-24T03:34:08;15.20;99.90
16479;DHT22;8350;52.316;10.530;2023-08-24T03:36:35;15.10;99.90
16479;DHT22;8350;52.316;10.530;2023-08-24T03:39:03;15.00;99.90
16479;DHT22;8350;52.316;10.530;2023-08-24T03:41:30;15.00;99.90
16479;DHT22;8350;52.316;10.530;2023-08-24T03:43:57;15.00;99.90
16479;DHT22;8350;52.316;10.530;2023-08-24T03:46:26;15.00;99.90
16479;DHT22;8350;52.316;10.530;2023-08-24T03:51:53;15.00;99.90
16479;DHT22;8350;52.316;10.530;2023-08-24T03:54:20;15.10;99.90
16479;DHT22;8350;52.316;10.530;2023-08-24T03:56:46;15.20;99.90
16479;DHT22;8350;52.316;10.530;2023-08-24T03:59:13;15.10;99.90
16479;DHT22;8350;52.316;10.530;2023-08-24T04:01:45;15.10;99.90
16479;DHT22;8350;52.316;10.530;2023-08-24T04:04:12;15.10;99.90
16479;DHT22;8350;52.316;10.530;2023-08-24T04:06:39;15.20;99.90
16479;DHT22;8350;52.316;10.530;2023-08-24T04:09:06;15.20;99.90
16479;DHT22;8350;52.316;10.530;2023-08-24T04:11:33;15.20;99.90
16479;DHT22;8350;52.316;10.530;2023-08-24T04:14:00;15.20;99.90
16479;DHT22;8350;52.316;10.530;2023-08-24T04:16:28;15.20;99.90
16479;DHT22;8350;52.316;10.530;2023-08-24T04:18:56;15.20;99.90
16479;DHT22;8350;52.316;10.530;2023-08-24T04:21:23;15.10;99.90
16479;DHT22;8350;52.316;10.530;2023-08-24T04:23:50;15.20;99.90
16479;DHT22;8350;52.316;10.530;2023-08-24T04:26:17;15.20;99.90
16479;DHT22;8350;52.316;10.530;2023-08-24T04:28:45;15.20;99.90
16479;DHT22;8350;52.316;10.530;2023-08-24T04:31:12;15.20;99.90
16479;DHT22;8350;52.316;10.530;2023-08-24T04:33:39;15.20;99.90
16479;DHT22;8350;52.316;10.530;2023-08-24T04:36:08;15.20;99.90
16479;DHT22;8350;52.316;10.530;2023-08-24T04:38:34;15.20;99.90
16479;DHT22;8350;52.316;10.530;2023-08-24T04:41:01;15.20;99.90
16479;DHT22;8350;52.316;10.530;2023-08-24T04:43:28;15.20;99.90
16479;DHT22;8350;52.316;10.530;2023-08-24T04:45:55;15.20;99.90
16479;DHT22;8350;52.316;10.530;2023-08-24T04:48:29;15.30;99.90
16479;DHT22;8350;52.316;10.530;2023-08-24T04:50:58;15.40;99.90
16479;DHT22;8350;52.316;10.530;2023-08-24T04:53:27;15.70;99.90
16479;DHT22;8350;52.316;10.530;2023-08-24T04:55:54;16.30;99.90
16479;DHT22;8350;52.316;10.530;2023-08-24T04:58:23;16.80;99.90
16479;DHT22;8350;52.316;10.530;2023-08-24T05:00:52;17.40;99.90
16479;DHT22;8350;52.316;10.530;2023-08-24T05:03:19;18.10;99.90
16479;DHT22;8350;52.316;10.530;2023-08-24T05:05:47;18.70;99.90
16479;DHT22;8350;52.316;10.530;2023-08-24T05:08:14;19.20;99.90
16479;DHT22;8350;52.316;10.530;2023-08-24T05:10:44;19.60;99.90
16479;DHT22;8350;52.316;10.530;2023-08-24T05:13:11;20.00;99.90
16479;DHT22;8350;52.316;10.530;2023-08-24T05:15:40;20.60;99.90
16479;DHT22;8350;52.316;10.530;2023-08-24T05:18:09;20.90;99.90
16479;DHT22;8350;52.316;10.530;2023-08-24T05:20:38;21.40;99.90
16479;DHT22;8350;52.316;10.530;2023-08-24T05:23:05;21.90;99.90
16479;DHT22;8350;52.316;10.530;2023-08-24T05:25:32;22.20;99.90
16479;DHT22;8350;52.316;10.530;2023-08-24T05:28:01;22.70;99.90
16479;DHT22;8350;52.316;10.530;2023-08-24T05:30:28;23.20;99.90
16479;DHT22;8350;52.316;10.530;2023-08-24T05:32:55;23.40;99.90
16479;DHT22;8350;52.316;10.530;2023-08-24T05:35:23;23.80;99.90
16479;DHT22;8350;52.316;10.530;2023-08-24T05:37:55;24.20;99.90
16479;DHT22;8350;52.316;10.530;2023-08-24T05:40:22;24.30;99.90
16479;DHT22;8350;52.316;10.530;2023-08-24T05:42:49;24.40;99.90
16479;DHT22;8350;52.316;10.530;2023-08-24T05:45:17;24.30;99.90
16479;DHT22;8350;52.316;10.530;2023-08-24T05:47:44;23.90;99.90
16479;DHT22;8350;52.316;10.530;2023-08-24T05:50:12;23.10;99.90
16479;DHT22;8350;52.316;10.530;2023-08-24T05:52:39;22.20;99.90
16479;DHT22;8350;52.316;10.530;2023-08-24T05:55:07;21.40;99.90
16479;DHT22;8350;52.316;10.530;2023-08-24T05:57:34;20.90;99.90
16479;DHT22;8350;52.316;10.530;2023-08-24T06:00:01;20.50;99.90
16479;DHT22;8350;52.316;10.530;2023-08-24T06:02:30;20.20;99.90
16479;DHT22;8350;52.316;10.530;2023-08-24T06:04:57;20.00;99.90
16479;DHT22;8350;52.316;10.530;2023-08-24T06:07:26;19.70;99.90
16479;DHT22;8350;52.316;10.530;2023-08-24T06:09:53;19.50;99.90
16479;DHT22;8350;52.316;10.530;2023-08-24T06:12:20;19.50;99.90
16479;DHT22;8350;52.316;10.530;2023-08-24T06:14:47;19.40;99.90
16479;DHT22;8350;52.316;10.530;2023-08-24T06:17:21;19.40;99.90
16479;DHT22;8350;52.316;10.530;2023-08-24T06:19:50;19.50;99.90
16479;DHT22;8350;52.316;10.530;2023-08-24T06:22:17;19.70;99.90
16479;DHT22;8350;52.316;10.530;2023-08-24T06:24:44;19.90;99.90
16479;DHT22;8350;52.316;10.530;2023-08-24T06:27:17;19.90;99.90
16479;DHT22;8350;52.316;10.530;2023-08-24T06:29:44;19.80;99.90
16479;DHT22;8350;52.316;10.530;2023-08-24T06:32:13;19.70;99.90
16479;DHT22;8350;52.316;10.530;2023-08-24T06:34:42;19.70;99.90
16479;DHT22;8350;52.316;10.530;2023-08-24T06:37:11;19.60;99.90
16479;DHT22;8350;52.316;10.530;2023-08-24T06:39:38;19.50;99.90
16479;DHT22;8350;52.316;10.530;2023-08-24T06:42:12;19.40;99.90
16479;DHT22;8350;52.316;10.530;2023-08-24T06:44:47;19.30;99.90
16479;DHT22;8350;52.316;10.530;2023-08-24T06:47:16;19.30;99.90
16479;DHT22;8350;52.316;10.530;2023-08-24T06:49:43;19.20;99.90
16479;DHT22;8350;52.316;10.530;2023-08-24T06:52:12;19.20;99.90
16479;DHT22;8350;52.316;10.530;2023-08-24T06:54:41;19.20;99.90
16479;DHT22;8350;52.316;10.530;2023-08-24T06:57:10;19.30;99.90
16479;DHT22;8350;52.316;10.530;2023-08-24T06:59:39;19.30;99.90
16479;DHT22;8350;52.316;10.530;2023-08-24T07:02:06;19.50;99.90
16479;DHT22;8350;52.316;10.530;2023-08-24T07:04:33;19.50;99.90
16479;DHT22;8350;52.316;10.530;2023-08-24T07:07:00;19.50;99.90
16479;DHT22;8350;52.316;10.530;2023-08-24T07:09:33;19.50;99.90
16479;DHT22;8350;52.316;10.530;2023-08-24T07:12:02;19.50;99.90
16479;DHT22;8350;52.316;10.530;2023-08-24T07:14:35;19.60;99.90
16479;DHT22;8350;52.316;10.530;2023-08-24T07:17:02;19.60;99.90
16479;DHT22;8350;52.316;10.530;2023-08-24T07:19:29;19.60;99.90
16479;DHT22;8350;52.316;10.530;2023-08-24T07:21:59;19.60;99.90
16479;DHT22;8350;52.316;10.530;2023-08-24T07:24:26;19.70;99.90
16479;DHT22;8350;52.316;10.530;2023-08-24T07:26:56;19.80;99.90
16479;DHT22;8350;52.316;10.530;2023-08-24T07:29:25;20.00;99.90
16479;DHT22;8350;52.316;10.530;2023-08-24T07:31:52;20.10;99.90
16479;DHT22;8350;52.316;10.530;2023-08-24T07:34:19;20.20;99.90
16479;DHT22;8350;52.316;10.530;2023-08-24T07:36:47;20.20;99.90
16479;DHT22;8350;52.316;10.530;2023-08-24T07:39:14;20.30;99.90
16479;DHT22;8350;52.316;10.530;2023-08-24T07:41:46;20.40;99.90
16479;DHT22;8350;52.316;10.530;2023-08-24T07:44:14;20.70;99.90
16479;DHT22;8350;52.316;10.530;2023-08-24T07:46:41;21.00;99.90
16479;DHT22;8350;52.316;10.530;2023-08-24T07:49:08;21.30;99.90
16479;DHT22;8350;52.316;10.530;2023-08-24T07:51:35;21.50;99.90
16479;DHT22;8350;52.316;10.530;2023-08-24T07:54:05;21.80;99.90
16479;DHT22;8350;52.316;10.530;2023-08-24T07:56:32;21.80;99.90
16479;DHT22;8350;52.316;10.530;2023-08-24T07:59:01;21.80;99.90
16479;DHT22;8350;52.316;10.530;2023-08-24T08:01:30;22.00;99.90
16479;DHT22;8350;52.316;10.530;2023-08-24T08:03:59;22.10;99.90
16479;DHT22;8350;52.316;10.530;2023-08-24T08:06:26;22.30;99.90
16479;DHT22;8350;52.316;10.530;2023-08-24T08:08:53;22.50;99.90
16479;DHT22;8350;52.316;10.530;2023-08-24T08:11:20;22.80;99.90
16479;DHT22;8350;52.316;10.530;2023-08-24T08:13:47;23.10;99.90
16479;DHT22;8350;52.316;10.530;2023-08-24T08:16:15;23.20;99.90
16479;DHT22;8350;52.316;10.530;2023-08-24T08:18:43;23.50;99.90
16479;DHT22;8350;52.316;10.530;2023-08-24T08:21:10;23.60;99.90
16479;DHT22;8350;52.316;10.530;2023-08-24T08:23:37;23.90;99.90
16479;DHT22;8350;52.316;10.530;2023-08-24T08:26:05;24.00;99.90
16479;DHT22;8350;52.316;10.530;2023-08-24T08:28:32;24.00;99.90
16479;DHT22;8350;52.316;10.530;2023-08-24T08:31:00;24.40;99.90
16479;DHT22;8350;52.316;10.530;2023-08-24T08:33:27;24.80;99.90
16479;DHT22;8350;52.316;10.530;2023-08-24T08:35:56;25.00;99.90
16479;DHT22;8350;52.316;10.530;2023-08-24T08:38:23;25.20;99.90
16479;DHT22;8350;52.316;10.530;2023-08-24T08:40:54;25.30;99.90
16479;DHT22;8350;52.316;10.530;2023-08-24T08:43:22;25.50;99.90
16479;DHT22;8350;52.316;10.530;2023-08-24T08:45:50;25.70;99.90
16479;DHT22;8350;52.316;10.530;2023-08-24T08:48:18;25.70;99.90
16479;DHT22;8350;52.316;10.530;2023-08-24T08:50:48;25.80;99.90
16479;DHT22;8350;52.316;10.530;2023-08-24T08:53:18;26.10;99.90
16479;DHT22;8350;52.316;10.530;2023-08-24T08:55:45;26.30;99.90
16479;DHT22;8350;52.316;10.530;2023-08-24T08:58:12;26.30;99.90
16479;DHT22;8350;52.316;10.530;2023-08-24T09:00:39;26.50;99.90
16479;DHT22;8350;52.316;10.530;2023-08-24T09:03:08;26.60;99.90
16479;DHT22;8350;52.316;10.530;2023-08-24T09:05:37;26.60;99.90
16479;DHT22;8350;52.316;10.530;2023-08-24T09:08:05;26.70;99.90
16479;DHT22;8350;52.316;10.530;2023-08-24T09:10:33;26.70;99.90
16479;DHT22;8350;52.316;10.530;2023-08-24T09:13:00;26.70;99.90
16479;DHT22;8350;52.316;10.530;2023-08-24T09:15:31;26.70;99.90
16479;DHT22;8350;52.316;10.530;2023-08-24T09:18:00;26.70;99.90
16479;DHT22;8350;52.316;10.530;2023-08-24T09:20:28;26.90;99.90
16479;DHT22;8350;52.316;10.530;2023-08-24T09:22:55;27.00;99.90
16479;DHT22;8350;52.316;10.530;2023-08-24T09:25:23;27.10;99.90
16479;DHT22;8350;52.316;10.530;2023-08-24T09:28:01;27.20;99.90
16479;DHT22;8350;52.316;10.530;2023-08-24T09:30:30;27.50;99.90
16479;DHT22;8350;52.316;10.530;2023-08-24T09:33:01;27.70;99.90
16479;DHT22;8350;52.316;10.530;2023-08-24T09:35:29;28.10;99.90
16479;DHT22;8350;52.316;10.530;2023-08-24T09:37:56;28.40;99.90
16479;DHT22;8350;52.316;10.530;2023-08-24T09:40:24;28.40;99.90
16479;DHT22;8350;52.316;10.530;2023-08-24T09:42:52;28.10;99.90
16479;DHT22;8350;52.316;10.530;2023-08-24T09:45:20;28.30;99.90
16479;DHT22;8350;52.316;10.530;2023-08-24T09:47:50;28.70;99.90
16479;DHT22;8350;52.316;10.530;2023-08-24T09:50:18;28.70;99.90
16479;DHT22;8350;52.316;10.530;2023-08-24T09:52:47;28.80;99.90
16479;DHT22;8350;52.316;10.530;2023-08-24T09:55:17;28.80;99.90
16479;DHT22;8350;52.316;10.530;2023-08-24T09:57:45;28.80;99.90
16479;DHT22;8350;52.316;10.530;2023-08-24T10:00:13;28.60;99.90
16479;DHT22;8350;52.316;10.530;2023-08-24T10:02:51;28.60;99.90
16479;DHT22;8350;52.316;10.530;2023-08-24T10:05:23;28.50;99.90
16479;DHT22;8350;52.316;10.530;2023-08-24T10:07:54;27.90;99.90
16479;DHT22;8350;52.316;10.530;2023-08-24T10:10:24;27.50;99.90
16479;DHT22;8350;52.316;10.530;2023-08-24T10:12:57;27.40;99.90
16479;DHT22;8350;52.316;10.530;2023-08-24T10:15:26;27.70;99.90
16479;DHT22;8350;52.316;10.530;2023-08-24T10:17:59;28.00;99.90
16479;DHT22;8350;52.316;10.530;2023-08-24T10:20:27;28.20;99.90
16479;DHT22;8350;52.316;10.530;2023-08-24T10:22:56;28.40;99.90
16479;DHT22;8350;52.316;10.530;2023-08-24T10:25:24;28.50;99.90
16479;DHT22;8350;52.316;10.530;2023-08-24T10:27:51;28.40;99.90
16479;DHT22;8350;52.316;10.530;2023-08-24T10:30:20;28.60;99.90
16479;DHT22;8350;52.316;10.530;2023-08-24T10:32:51;28.80;99.90
16479;DHT22;8350;52.316;10.530;2023-08-24T10:35:21;29.00;99.90
16479;DHT22;8350;52.316;10.530;2023-08-24T10:37:52;29.10;99.90
16479;DHT22;8350;52.316;10.530;2023-08-24T10:40:31;29.00;99.90
16479;DHT22;8350;52.316;10.530;2023-08-24T10:42:58;29.00;99.90
16479;DHT22;8350;52.316;10.530;2023-08-24T10:45:55;29.20;99.90
16479;DHT22;8350;52.316;10.530;2023-08-24T10:48:23;29.20;99.90
16479;DHT22;8350;52.316;10.530;2023-08-24T10:51:17;29.20;99.90
16479;DHT22;8350;52.316;10.530;2023-08-24T10:53:46;29.50;99.90
16479;DHT22;8350;52.316;10.530;2023-08-24T10:56:15;29.60;99.90
16479;DHT22;8350;52.316;10.530;2023-08-24T10:58:43;29.50;99.90
16479;DHT22;8350;52.316;10.530;2023-08-24T11:01:17;29.20;99.90
16479;DHT22;8350;52.316;10.530;2023-08-24T11:03:51;29.10;99.90
16479;DHT22;8350;52.316;10.530;2023-08-24T11:06:23;29.10;99.90
16479;DHT22;8350;52.316;10.530;2023-08-24T11:09:05;29.30;99.90
16479;DHT22;8350;52.316;10.530;2023-08-24T11:11:36;29.60;99.90
16479;DHT22;8350;52.316;10.530;2023-08-24T11:14:15;29.80;99.90
16479;DHT22;8350;52.316;10.530;2023-08-24T11:16:45;29.80;99.90
16479;DHT22;8350;52.316;10.530;2023-08-24T11:19:14;29.80;99.90
16479;DHT22;8350;52.316;10.530;2023-08-24T11:21:44;29.50;99.90
16479;DHT22;8350;52.316;10.530;2023-08-24T11:24:13;29.60;99.90
16479;DHT22;8350;52.316;10.530;2023-08-24T11:26:49;29.60;99.90
16479;DHT22;8350;52.316;10.530;2023-08-24T11:29:18;29.70;99.90
16479;DHT22;8350;52.316;10.530;2023-08-24T11:31:45;30.00;99.90
16479;DHT22;8350;52.316;10.530;2023-08-24T11:34:15;30.00;99.90
16479;DHT22;8350;52.316;10.530;2023-08-24T11:36:45;29.50;99.90
16479;DHT22;8350;52.316;10.530;2023-08-24T11:39:17;29.40;99.90
16479;DHT22;8350;52.316;10.530;2023-08-24T11:41:45;29.10;99.90
16479;DHT22;8350;52.316;10.530;2023-08-24T11:44:14;29.10;99.90
16479;DHT22;8350;52.316;10.530;2023-08-24T11:46:41;29.20;99.90
16479;DHT22;8350;52.316;10.530;2023-08-24T11:49:08;29.50;99.90
16479;DHT22;8350;52.316;10.530;2023-08-24T11:51:36;29.30;99.90
16479;DHT22;8350;52.316;10.530;2023-08-24T11:54:07;29.10;99.90
16479;DHT22;8350;52.316;10.530;2023-08-24T11:56:41;29.20;99.90
16479;DHT22;8350;52.316;10.530;2023-08-24T11:59:14;29.30;99.90
16479;DHT22;8350;52.316;10.530;2023-08-24T12:01:42;29.40;99.90
16479;DHT22;8350;52.316;10.530;2023-08-24T12:04:09;29.50;99.90
16479;DHT22;8350;52.316;10.530;2023-08-24T12:06:37;29.80;99.90
16479;DHT22;8350;52.316;10.530;2023-08-24T12:09:07;29.90;99.90
16479;DHT22;8350;52.316;10.530;2023-08-24T12:11:37;29.90;99.90
16479;DHT22;8350;52.316;10.530;2023-08-24T12:14:04;30.20;99.90
16479;DHT22;8350;52.316;10.530;2023-08-24T12:16:33;30.40;99.90
16479;DHT22;8350;52.316;10.530;2023-08-24T12:19:06;30.30;99.90
16479;DHT22;8350;52.316;10.530;2023-08-24T12:21:33;29.90;99.90
16479;DHT22;8350;52.316;10.530;2023-08-24T12:24:01;29.80;99.90
16479;DHT22;8350;52.316;10.530;2023-08-24T12:26:33;29.80;99.90
16479;DHT22;8350;52.316;10.530;2023-08-24T12:29:06;29.90;99.90
16479;DHT22;8350;52.316;10.530;2023-08-24T12:31:35;30.10;99.90
16479;DHT22;8350;52.316;10.530;2023-08-24T12:34:04;30.20;99.90
16479;DHT22;8350;52.316;10.530;2023-08-24T12:36:32;30.50;99.90
16479;DHT22;8350;52.316;10.530;2023-08-24T12:39:05;30.40;99.90
16479;DHT22;8350;52.316;10.530;2023-08-24T12:41:34;30.40;99.90
16479;DHT22;8350;52.316;10.530;2023-08-24T12:44:01;30.40;99.90
16479;DHT22;8350;52.316;10.530;2023-08-24T12:47:02;30.60;99.90
16479;DHT22;8350;52.316;10.530;2023-08-24T12:49:29;30.40;99.90
16479;DHT22;8350;52.316;10.530;2023-08-24T12:51:56;30.50;99.90
16479;DHT22;8350;52.316;10.530;2023-08-24T12:54:22;30.70;99.90
16479;DHT22;8350;52.316;10.530;2023-08-24T12:56:51;30.70;99.90
16479;DHT22;8350;52.316;10.530;2023-08-24T12:59:18;30.70;99.90
16479;DHT22;8350;52.316;10.530;2023-08-24T13:01:45;30.50;99.90
16479;DHT22;8350;52.316;10.530;2023-08-24T13:04:12;30.10;99.90
16479;DHT22;8350;52.316;10.530;2023-08-24T13:06:39;30.10;99.90
16479;DHT22;8350;52.316;10.530;2023-08-24T13:09:06;29.80;99.90
16479;DHT22;8350;52.316;10.530;2023-08-24T13:11:34;29.60;99.90
16479;DHT22;8350;52.316;10.530;2023-08-24T13:14:02;29.60;99.90
16479;DHT22;8350;52.316;10.530;2023-08-24T13:16:29;29.60;99.90
16479;DHT22;8350;52.316;10.530;2023-08-24T13:18:56;29.50;99.90
16479;DHT22;8350;52.316;10.530;2023-08-24T13:21:24;29.50;99.90
16479;DHT22;8350;52.316;10.530;2023-08-24T13:23:51;29.40;99.90
16479;DHT22;8350;52.316;10.530;2023-08-24T13:26:18;29.50;99.90
16479;DHT22;8350;52.316;10.530;2023-08-24T13:28:46;29.70;99.90
16479;DHT22;8350;52.316;10.530;2023-08-24T13:31:15;29.80;99.90
16479;DHT22;8350;52.316;10.530;2023-08-24T13:33:42;29.80;99.90
16479;DHT22;8350;52.316;10.530;2023-08-24T13:36:09;29.80;99.90
16479;DHT22;8350;52.316;10.530;2023-08-24T13:38:36;29.60;99.90
16479;DHT22;8350;52.316;10.530;2023-08-24T13:41:03;29.60;99.90
16479;DHT22;8350;52.316;10.530;2023-08-24T13:43:31;29.70;99.90
16479;DHT22;8350;52.316;10.530;2023-08-24T13:45:58;29.90;99.90
16479;DHT22;8350;52.316;10.530;2023-08-24T13:48:27;30.00;99.90
16479;DHT22;8350;52.316;10.530;2023-08-24T13:51:01;30.10;99.90
16479;DHT22;8350;52.316;10.530;2023-08-24T13:53:28;30.20;99.90
16479;DHT22;8350;52.316;10.530;2023-08-24T13:55:55;30.20;99.90
16479;DHT22;8350;52.316;10.530;2023-08-24T13:58:22;30.20;99.90
16479;DHT22;8350;52.316;10.530;2023-08-24T14:00:55;30.10;99.90
16479;DHT22;8350;52.316;10.530;2023-08-24T14:03:22;30.10;99.90
16479;DHT22;8350;52.316;10.530;2023-08-24T14:05:55;30.20;99.90
16479;DHT22;8350;52.316;10.530;2023-08-24T14:08:22;30.30;99.90
16479;DHT22;8350;52.316;10.530;2023-08-24T14:10:48;30.40;99.90
16479;DHT22;8350;52.316;10.530;2023-08-24T14:13:15;30.30;99.90
16479;DHT22;8350;52.316;10.530;2023-08-24T14:15:43;30.30;99.90
16479;DHT22;8350;52.316;10.530;2023-08-24T14:18:11;30.20;99.90
16479;DHT22;8350;52.316;10.530;2023-08-24T14:20:38;30.20;99.90
16479;DHT22;8350;52.316;10.530;2023-08-24T14:23:07;30.20;99.90
16479;DHT22;8350;52.316;10.530;2023-08-24T14:25:34;30.10;99.90
16479;DHT22;8350;52.316;10.530;2023-08-24T14:28:00;30.10;99.90
16479;DHT22;8350;52.316;10.530;2023-08-24T14:30:27;30.10;99.90
16479;DHT22;8350;52.316;10.530;2023-08-24T14:36:17;30.00;99.90
16479;DHT22;8350;52.316;10.530;2023-08-24T14:38:47;30.00;99.90
16479;DHT22;8350;52.316;10.530;2023-08-24T14:41:14;30.00;99.90
16479;DHT22;8350;52.316;10.530;2023-08-24T14:43:42;30.10;99.90
16479;DHT22;8350;52.316;10.530;2023-08-24T14:46:11;30.30;99.90
16479;DHT22;8350;52.316;10.530;2023-08-24T14:48:39;30.20;99.90
16479;DHT22;8350;52.316;10.530;2023-08-24T14:51:07;30.00;99.90
16479;DHT22;8350;52.316;10.530;2023-08-24T14:53:34;30.00;99.90
16479;DHT22;8350;52.316;10.530;2023-08-24T14:56:02;30.10;99.90
16479;DHT22;8350;52.316;10.530;2023-08-24T14:58:31;30.00;99.90
16479;DHT22;8350;52.316;10.530;2023-08-24T15:00:58;30.00;99.90
16479;DHT22;8350;52.316;10.530;2023-08-24T15:03:25;30.10;99.90
16479;DHT22;8350;52.316;10.530;2023-08-24T15:06:11;30.20;99.90
16479;DHT22;8350;52.316;10.530;2023-08-24T15:08:39;29.90;99.90
16479;DHT22;8350;52.316;10.530;2023-08-24T15:11:08;29.70;99.90
16479;DHT22;8350;52.316;10.530;2023-08-24T15:13:37;29.50;99.90
16479;DHT22;8350;52.316;10.530;2023-08-24T15:16:04;29.40;99.90
16479;DHT22;8350;52.316;10.530;2023-08-24T15:18:31;29.40;99.90
16479;DHT22;8350;52.316;10.530;2023-08-24T15:20:58;29.30;99.90
16479;DHT22;8350;52.316;10.530;2023-08-24T15:23:26;29.30;99.90
16479;DHT22;8350;52.316;10.530;2023-08-24T15:25:54;29.30;99.90
16479;DHT22;8350;52.316;10.530;2023-08-24T15:28:26;29.40;99.90
16479;DHT22;8350;52.316;10.530;2023-08-24T15:30:53;29.40;99.90
16479;DHT22;8350;52.316;10.530;2023-08-24T15:33:20;29.50;99.90
16479;DHT22;8350;52.316;10.530;2023-08-24T15:35:48;29.50;99.90
16479;DHT22;8350;52.316;10.530;2023-08-24T15:38:14;29.50;99.90
16479;DHT22;8350;52.316;10.530;2023-08-24T15:40:41;29.40;99.90
16479;DHT22;8350;52.316;10.530;2023-08-24T15:43:09;29.30;99.90
16479;DHT22;8350;52.316;10.530;2023-08-24T15:45:38;29.40;99.90